Time;durP1;ratioP1;P1;durP2;ratioP2;P2;SDS_P1;SDS_P2;PMS_P1;PMS_P2;Temp;Humidity;BMP_temperature;BMP_pressure;BME280_temperature;BME280_humidity;BME280_pressure;Samples;Min_cycle;Max_cycle;Signal;HPM_P1;HPM_P2
2023/07/09 00:00:49;;;;;;;14.07;5.70;;;;;;;;;;10463699;28;20120;-84
2023/07/09 00:05:54;;;;;;;12.18;5.45;;;;;;;;;;10464062;28;20032;-84
2023/07/09 00:10:56;;;;;;;13.15;5.85;;;;;;;;;;10463897;28;20058;-84
2023/07/09 00:16:00;;;;;;;12.73;5.72;;;;;;;;;;10465578;28;20398;-82
2023/07/09 00:21:05;;;;;;;19.58;5.60;;;;;;;;;;10466377;28;20040;-82
2023/07/09 00:26:09;;;;;;;15.23;5.40;;;;;;;;;;10468268;28;20036;-82
2023/07/09 00:31:15;;;;;;;15.38;5.35;;;;;;;;;;10466411;28;20048;-84
2023/07/09 00:36:21;;;;;;;12.02;4.90;;;;;;;;;;10459937;28;20371;-83
2023/07/09 00:41:24;;;;;;;11.93;5.47;;;;;;;;;;10467750;28;20991;-83
2023/07/09 00:46:27;;;;;;;;;;;;;;;;;;10481711;28;20047;-84
2023/07/09 00:51:34;;;;;;;15.98;5.03;;;;;;;;;;10474602;28;19990;-82
2023/07/09 00:56:38;;;;;;;15.00;4.72;;;;;;;;;;10468130;28;20543;-84
2023/07/09 01:01:41;;;;;;;9.40;4.78;;;;;;;;;;10467466;28;20106;-84
2023/07/09 01:06:44;;;;;;;;;;;;;;;;;;10470369;28;20514;-83
2023/07/09 01:11:48;;;;;;;11.88;4.97;;;;;;;;;;10468578;28;19924;-82
2023/07/09 01:16:57;;;;;;;10.43;4.47;;;;;;;;;;10465277;28;20041;-84
2023/07/09 01:22:02;;;;;;;8.70;4.45;;;;;;;;;;10467239;28;20044;-84
2023/07/09 01:27:05;;;;;;;10.57;4.20;;;;;;;;;;10477667;28;20079;-85
2023/07/09 01:32:08;;;;;;;;;;;;;;;;;;10470732;28;20087;-84
2023/07/09 01:37:12;;;;;;;10.23;4.10;;;;;;;;;;10484663;28;19931;-84
2023/07/09 01:42:17;;;;;;;8.52;4.05;;;;;;;;;;10454232;28;20063;-83
2023/07/09 01:47:20;;;;;;;9.52;4.32;;;;;;;;;;10460373;28;20045;-83
2023/07/09 01:52:23;;;;;;;;;;;;;;;;;;10463524;28;20048;-82
2023/07/09 01:57:32;;;;;;;14.23;4.18;;;;;;;;;;10468667;28;19993;-83
2023/07/09 02:02:36;;;;;;;10.00;4.60;;;;;;;;;;10465681;28;20486;-83
2023/07/09 02:07:38;;;;;;;10.10;3.70;;;;;;;;;;10462020;28;20063;-83
2023/07/09 02:12:43;;;;;;;9.07;3.55;;;;;;;;;;10465264;28;20040;-82
2023/07/09 02:17:47;;;;;;;7.43;3.50;;;;;;;;;;10467419;28;20257;-83
2023/07/09 02:22:51;;;;;;;10.90;4.50;;;;;;;;;;10472188;28;20036;-84
2023/07/09 02:27:55;;;;;;;9.38;4.32;;;;;;;;;;10477730;28;20041;-84
2023/07/09 02:32:57;;;;;;;8.85;3.92;;;;;;;;;;10484533;28;20039;-84
2023/07/09 02:38:01;;;;;;;9.57;3.50;;;;;;;;;;10481604;28;20032;-83
2023/07/09 02:43:06;;;;;;;7.78;3.72;;;;;;;;;;10474166;28;20041;-84
2023/07/09 02:48:09;;;;;;;7.78;3.47;;;;;;;;;;10469956;28;20049;-84
2023/07/09 02:53:11;;;;;;;8.43;3.67;;;;;;;;;;10465976;28;20581;-85
2023/07/09 02:58:16;;;;;;;7.68;3.25;;;;;;;;;;10464443;28;20063;-83
2023/07/09 03:03:18;;;;;;;8.90;4.22;;;;;;;;;;10461244;28;20523;-84
2023/07/09 03:08:21;;;;;;;12.57;3.65;;;;;;;;;;10452448;28;20045;-83
2023/07/09 03:13:26;;;;;;;9.25;3.95;;;;;;;;;;10470613;28;21959;-84
2023/07/09 03:18:29;;;;;;;7.60;4.25;;;;;;;;;;10486710;28;20480;-84
2023/07/09 03:23:32;;;;;;;18.23;4.43;;;;;;;;;;10480178;28;20055;-83
2023/07/09 03:28:35;;;;;;;11.40;4.22;;;;;;;;;;10468292;28;20127;-82
2023/07/09 03:33:38;;;;;;;6.60;3.53;;;;;;;;;;10468491;28;20496;-83
2023/07/09 03:38:41;;;;;;;6.75;3.80;;;;;;;;;;10471226;28;20048;-83
2023/07/09 03:43:45;;;;;;;14.35;4.32;;;;;;;;;;10468653;28;20118;-85
2023/07/09 03:48:50;;;;;;;8.38;3.63;;;;;;;;;;10467354;28;20179;-86
2023/07/09 03:53:53;;;;;;;9.65;4.00;;;;;;;;;;10469112;28;20261;-85
2023/07/09 03:58:57;;;;;;;9.82;3.72;;;;;;;;;;10475521;28;20049;-84
2023/07/09 04:04:00;;;;;;;12.05;4.10;;;;;;;;;;10470394;28;20109;-83
2023/07/09 04:09:02;;;;;;;9.38;4.00;;;;;;;;;;10481470;28;20142;-83
2023/07/09 04:14:07;;;;;;;8.95;2.95;;;;;;;;;;10498353;28;20132;-83
2023/07/09 04:19:10;;;;;;;10.13;3.78;;;;;;;;;;10485209;28;20058;-85
2023/07/09 04:24:12;;;;;;;8.35;3.80;;;;;;;;;;10466151;28;20187;-84
2023/07/09 04:29:16;;;;;;;7.50;3.90;;;;;;;;;;10473507;28;20052;-84
2023/07/09 04:34:19;;;;;;;8.25;3.50;;;;;;;;;;10467221;28;20295;-84
2023/07/09 04:39:22;;;;;;;7.88;3.55;;;;;;;;;;10466399;28;20432;-84
2023/07/09 04:44:26;;;;;;;9.32;3.78;;;;;;;;;;10470043;28;20422;-85
2023/07/09 04:49:28;;;;;;;8.55;4.28;;;;;;;;;;10476573;28;20052;-85
2023/07/09 04:54:32;;;;;;;9.20;3.60;;;;;;;;;;10472842;28;20071;-86
2023/07/09 04:59:36;;;;;;;10.30;2.97;;;;;;;;;;10482424;28;20054;-85
2023/07/09 05:04:39;;;;;;;8.82;3.55;;;;;;;;;;10475940;28;20051;-85
2023/07/09 05:09:42;;;;;;;6.15;2.85;;;;;;;;;;10464786;28;20044;-86
2023/07/09 05:14:46;;;;;;;5.82;3.33;;;;;;;;;;10461953;28;20877;-85
2023/07/09 05:19:49;;;;;;;5.68;3.15;;;;;;;;;;10466820;28;20129;-84
2023/07/09 05:24:52;;;;;;;7.60;3.55;;;;;;;;;;10462285;28;20666;-81
2023/07/09 05:29:56;;;;;;;8.90;3.55;;;;;;;;;;10464628;28;20063;-81
2023/07/09 05:34:58;;;;;;;5.38;3.17;;;;;;;;;;10464702;28;20052;-84
2023/07/09 05:40:02;;;;;;;6.57;3.22;;;;;;;;;;10471697;28;20120;-86
2023/07/09 05:45:07;;;;;;;10.57;3.40;;;;;;;;;;10468647;28;20367;-86
2023/07/09 05:50:10;;;;;;;6.35;3.10;;;;;;;;;;10482275;28;20071;-85
2023/07/09 05:55:13;;;;;;;5.75;3.10;;;;;;;;;;10479959;28;20100;-85
2023/07/09 06:00:18;;;;;;;4.95;2.40;;;;;;;;;;10471631;28;20673;-85
2023/07/09 06:05:21;;;;;;;6.10;2.72;;;;;;;;;;10472749;28;20096;-86
2023/07/09 06:10:24;;;;;;;9.82;3.58;;;;;;;;;;10514607;28;20037;-84
2023/07/09 06:15:28;;;;;;;6.18;3.17;;;;;;;;;;10514066;28;20063;-85
2023/07/09 06:20:31;;;;;;;6.68;3.30;;;;;;;;;;10515228;28;20052;-86
2023/07/09 06:25:33;;;;;;;3.35;2.13;;;;;;;;;;10510279;28;20044;-85
2023/07/09 06:30:41;;;;;;;8.05;3.67;;;;;;;;;;10510287;28;20475;-84
2023/07/09 06:35:47;;;;;;;7.15;3.30;;;;;;;;;;10486538;28;20492;-85
2023/07/09 06:40:50;;;;;;;7.07;2.67;;;;;;;;;;10478366;28;20055;-84
2023/07/09 06:45:55;;;;;;;6.72;3.00;;;;;;;;;;10476387;28;20032;-85
2023/07/09 06:50:58;;;;;;;5.57;2.92;;;;;;;;;;10470715;28;20045;-85
2023/07/09 06:56:01;;;;;;;6.18;2.70;;;;;;;;;;10474203;28;20186;-84
2023/07/09 07:01:06;;;;;;;6.00;2.83;;;;;;;;;;10478616;28;20049;-85
2023/07/09 07:06:09;;;;;;;7.40;2.72;;;;;;;;;;10482697;28;20049;-83
2023/07/09 07:11:12;;;;;;;5.57;2.80;;;;;;;;;;10485694;28;20148;-85
2023/07/09 07:16:16;;;;;;;6.47;3.00;;;;;;;;;;10483762;28;20479;-83
2023/07/09 07:21:19;;;;;;;5.22;2.70;;;;;;;;;;10486882;28;20040;-83
2023/07/09 07:26:22;;;;;;;7.07;2.90;;;;;;;;;;10479122;28;20060;-83
2023/07/09 07:31:26;;;;;;;6.88;2.83;;;;;;;;;;10485208;28;20051;-83
2023/07/09 07:36:29;;;;;;;7.43;2.97;;;;;;;;;;10476954;28;20052;-84
2023/07/09 07:41:36;;;;;;;7.68;3.33;;;;;;;;;;10474657;28;20072;-86
2023/07/09 07:46:40;;;;;;;6.38;2.83;;;;;;;;;;10468494;28;20036;-83
2023/07/09 07:51:44;;;;;;;6.80;3.13;;;;;;;;;;10475356;28;20478;-86
2023/07/09 07:56:46;;;;;;;5.15;3.30;;;;;;;;;;10466737;28;20347;-86
2023/07/09 08:01:51;;;;;;;5.60;3.00;;;;;;;;;;10470730;28;20972;-89
2023/07/09 08:06:55;;;;;;;10.43;3.30;;;;;;;;;;10473462;28;22350;-87
2023/07/09 08:11:58;;;;;;;6.10;3.60;;;;;;;;;;10474440;28;20371;-87
2023/07/09 08:17:02;;;;;;;6.90;4.05;;;;;;;;;;10471870;28;20488;-90
2023/07/09 08:22:05;;;;;;;7.82;3.20;;;;;;;;;;10477394;28;20041;-90
2023/07/09 08:27:09;;;;;;;9.75;4.07;;;;;;;;;;10481236;28;20113;-89
2023/07/09 08:32:14;;;;;;;8.43;4.28;;;;;;;;;;10469906;28;20040;-90
2023/07/09 08:37:17;;;;;;;6.93;3.97;;;;;;;;;;10469410;28;20119;-91
2023/07/09 08:42:24;;;;;;;7.68;3.88;;;;;;;;;;10465905;28;20398;-91
2023/07/09 08:47:34;;;;;;;6.57;3.78;;;;;;;;;;10478977;28;20094;-92
2023/07/09 08:52:38;;;;;;;5.93;3.28;;;;;;;;;;10464906;28;20045;-85
2023/07/09 08:57:43;;;;;;;7.15;4.18;;;;;;;;;;10466251;28;20140;-86
2023/07/09 09:02:50;;;;;;;7.40;3.50;;;;;;;;;;10478157;28;20040;-85
2023/07/09 09:08:13;;;;;;;5.25;3.42;;;;;;;;;;10464095;28;20049;-86
2023/07/09 09:13:17;;;;;;;12.20;4.03;;;;;;;;;;10465200;28;20039;-87
2023/07/09 09:18:22;;;;;;;7.15;3.58;;;;;;;;;;10465105;28;20506;-76
2023/07/09 09:23:29;;;;;;;8.05;4.30;;;;;;;;;;10459280;28;20045;-76
2023/07/09 09:34:44;;;;;;;6.85;4.32;;;;;;;;;;10455545;28;20080;-76
2023/07/09 09:40:23;;;;;;;8.13;4.57;;;;;;;;;;10455630;28;20126;-76
2023/07/09 09:51:11;;;;;;;5.97;5.18;;;;;;;;;;10456492;28;20037;-77
2023/07/09 09:56:15;;;;;;;6.65;5.40;;;;;;;;;;10464186;28;20051;-77
2023/07/09 10:01:18;;;;;;;6.22;5.45;;;;;;;;;;10464178;28;20044;-76
2023/07/09 10:06:28;;;;;;;8.18;5.38;;;;;;;;;;10477081;28;20043;-75
2023/07/09 10:11:36;;;;;;;6.53;5.10;;;;;;;;;;10464209;28;20654;-76
2023/07/09 10:16:41;;;;;;;8.20;5.25;;;;;;;;;;10459145;28;20537;-75
2023/07/09 10:21:47;;;;;;;6.30;5.18;;;;;;;;;;10457622;28;20639;-75
2023/07/09 10:26:50;;;;;;;;;;;;;;;;;;10460391;28;20040;-76
2023/07/09 10:31:56;;;;;;;6.38;5.32;;;;;;;;;;10454070;28;20018;-76
2023/07/09 10:37:06;;;;;;;6.03;4.80;;;;;;;;;;10460572;28;20053;-76
2023/07/09 10:42:13;;;;;;;6.88;4.47;;;;;;;;;;10460465;28;20490;-76
2023/07/09 10:47:25;;;;;;;6.70;4.53;;;;;;;;;;10502455;28;20048;-76
2023/07/09 10:52:30;;;;;;;6.68;4.57;;;;;;;;;;10501582;28;20131;-76
2023/07/09 10:57:40;;;;;;;7.23;5.07;;;;;;;;;;10507028;28;20127;-76
2023/07/09 11:02:44;;;;;;;7.55;4.70;;;;;;;;;;10507271;28;20098;-77
2023/07/09 11:07:49;;;;;;;7.85;5.50;;;;;;;;;;10501614;28;20060;-77
2023/07/09 11:12:56;;;;;;;7.20;5.40;;;;;;;;;;10500097;28;20055;-77
2023/07/09 11:17:58;;;;;;;;;;;;;;;;;;10505842;28;20040;-77
2023/07/09 11:23:05;;;;;;;6.40;3.65;;;;;;;;;;10487148;28;20333;-76
2023/07/09 11:28:09;;;;;;;7.93;4.00;;;;;;;;;;10503384;28;20134;-76
2023/07/09 11:33:17;;;;;;;9.77;4.13;;;;;;;;;;10502324;28;20044;-76
2023/07/09 11:38:28;;;;;;;5.75;3.70;;;;;;;;;;10507606;28;20056;-76
2023/07/09 11:43:33;;;;;;;6.75;3.80;;;;;;;;;;10512022;28;20779;-76
2023/07/09 11:48:36;;;;;;;6.32;4.03;;;;;;;;;;10509095;28;20052;-77
2023/07/09 11:53:42;;;;;;;6.82;3.85;;;;;;;;;;10513986;28;20040;-76
2023/07/09 11:58:49;;;;;;;6.77;4.20;;;;;;;;;;10507940;28;20039;-76
2023/07/09 12:03:53;;;;;;;8.83;4.17;;;;;;;;;;10509853;28;20056;-76
2023/07/09 12:08:58;;;;;;;7.90;3.75;;;;;;;;;;10508277;28;20306;-76
2023/07/09 12:14:04;;;;;;;6.75;3.80;;;;;;;;;;10510355;28;20640;-76
2023/07/09 12:19:08;;;;;;;6.10;3.42;;;;;;;;;;10508320;28;20044;-76
2023/07/09 12:24:19;;;;;;;6.20;3.80;;;;;;;;;;10510747;28;20052;-76
2023/07/09 12:29:24;;;;;;;5.63;3.53;;;;;;;;;;10510538;28;20052;-76
2023/07/09 12:34:31;;;;;;;7.05;4.22;;;;;;;;;;10506376;28;20043;-77
2023/07/09 12:39:37;;;;;;;6.00;3.85;;;;;;;;;;10507065;28;20036;-76
2023/07/09 12:44:40;;;;;;;5.93;3.40;;;;;;;;;;10511218;28;20066;-76
2023/07/09 12:49:44;;;;;;;9.45;3.60;;;;;;;;;;10510410;28;20034;-76
2023/07/09 12:54:57;;;;;;;8.13;3.40;;;;;;;;;;10490242;28;20080;-76
2023/07/09 13:00:01;;;;;;;7.65;4.05;;;;;;;;;;10504652;28;20066;-75
2023/07/09 13:05:06;;;;;;;6.32;3.88;;;;;;;;;;10502133;28;20335;-76
2023/07/09 13:10:16;;;;;;;8.90;3.78;;;;;;;;;;10505946;28;20096;-76
2023/07/09 13:15:30;;;;;;;7.10;3.80;;;;;;;;;;10505022;28;20527;-76
2023/07/09 13:20:34;;;;;;;7.22;3.70;;;;;;;;;;10508253;28;20046;-76
2023/07/09 13:25:39;;;;;;;7.40;3.35;;;;;;;;;;10506451;28;20575;-76
2023/07/09 13:30:50;;;;;;;6.18;3.55;;;;;;;;;;10507076;28;20556;-76
2023/07/09 13:35:54;;;;;;;6.90;3.25;;;;;;;;;;10506274;28;20032;-76
2023/07/09 13:41:00;;;;;;;8.75;3.63;;;;;;;;;;10507287;28;20052;-75
2023/07/09 13:46:05;;;;;;;7.75;2.92;;;;;;;;;;10506618;28;20426;-77
2023/07/09 13:51:14;;;;;;;7.93;3.33;;;;;;;;;;10507408;28;20612;-75
2023/07/09 13:56:18;;;;;;;7.38;2.95;;;;;;;;;;10505032;28;20051;-76
2023/07/09 14:01:22;;;;;;;15.95;8.57;;;;;;;;;;10504153;28;20098;-75
2023/07/09 14:06:25;;;;;;;5.68;3.10;;;;;;;;;;10502975;28;20036;-76
2023/07/09 14:11:29;;;;;;;6.50;3.22;;;;;;;;;;10502521;28;20044;-76
2023/07/09 14:16:32;;;;;;;7.28;3.40;;;;;;;;;;10501786;28;21816;-75
2023/07/09 14:21:35;;;;;;;7.53;3.40;;;;;;;;;;10506365;28;20067;-75
2023/07/09 14:26:40;;;;;;;6.10;3.00;;;;;;;;;;10506136;28;20036;-76
2023/07/09 14:31:43;;;;;;;6.05;3.20;;;;;;;;;;10506783;28;20050;-76
2023/07/09 14:36:46;;;;;;;7.32;3.00;;;;;;;;;;10499244;28;20036;-76
2023/07/09 14:41:50;;;;;;;7.47;3.45;;;;;;;;;;10504277;28;20163;-74
2023/07/09 14:46:53;;;;;;;10.70;4.55;;;;;;;;;;10504487;28;20433;-76
2023/07/09 14:51:56;;;;;;;7.10;4.32;;;;;;;;;;10501630;28;20048;-76
2023/07/09 14:57:00;;;;;;;83.22;31.83;;;;;;;;;;10500413;28;20188;-76
2023/07/09 15:02:11;;;;;;;7.05;3.40;;;;;;;;;;10500954;28;20089;-76
2023/07/09 15:07:14;;;;;;;9.68;4.10;;;;;;;;;;10504842;28;20040;-76
2023/07/09 15:12:20;;;;;;;7.32;3.00;;;;;;;;;;10512031;28;20072;-76
2023/07/09 15:17:23;;;;;;;7.07;3.45;;;;;;;;;;10506429;28;20084;-75
2023/07/09 15:22:28;;;;;;;8.40;3.13;;;;;;;;;;10516382;28;20046;-74
2023/07/09 15:27:32;;;;;;;5.97;3.10;;;;;;;;;;10511020;28;20051;-76
2023/07/09 15:32:35;;;;;;;7.07;2.70;;;;;;;;;;10514466;28;20420;-75
2023/07/09 15:37:38;;;;;;;9.02;3.88;;;;;;;;;;10513938;28;20112;-76
2023/07/09 15:42:42;;;;;;;6.57;2.85;;;;;;;;;;10514858;28;20150;-75
2023/07/09 15:47:45;;;;;;;8.10;3.13;;;;;;;;;;10511211;28;20129;-74
2023/07/09 15:52:48;;;;;;;5.63;2.83;;;;;;;;;;10509333;28;20448;-75
2023/07/09 15:57:53;;;;;;;5.75;2.75;;;;;;;;;;10507985;28;20460;-75
2023/07/09 16:02:57;;;;;;;7.07;3.50;;;;;;;;;;10511795;28;20126;-75
2023/07/09 16:08:20;;;;;;;9.07;2.97;;;;;;;;;;10507683;28;20044;-75
2023/07/09 16:13:25;;;;;;;6.97;2.90;;;;;;;;;;10512803;28;20047;-76
2023/07/09 16:18:28;;;;;;;5.18;2.67;;;;;;;;;;10510499;28;20441;-76
2023/07/09 16:23:30;;;;;;;6.82;2.80;;;;;;;;;;10508636;28;20055;-76
2023/07/09 16:28:34;;;;;;;7.90;3.08;;;;;;;;;;10508542;28;20044;-76
2023/07/09 16:33:37;;;;;;;6.47;2.85;;;;;;;;;;10509083;28;20452;-76
2023/07/09 16:38:40;;;;;;;7.95;3.17;;;;;;;;;;10508933;28;20044;-76
2023/07/09 16:43:44;;;;;;;6.90;2.90;;;;;;;;;;10506972;28;20040;-75
2023/07/09 16:48:47;;;;;;;15.52;4.43;;;;;;;;;;10492211;28;20081;-76
2023/07/09 16:53:50;;;;;;;9.55;3.15;;;;;;;;;;10512902;28;20524;-76
2023/07/09 16:58:54;;;;;;;5.43;2.85;;;;;;;;;;10509606;28;20169;-75
2023/07/09 17:03:57;;;;;;;5.65;2.90;;;;;;;;;;10512503;28;20077;-76
2023/07/09 17:09:00;;;;;;;9.90;3.03;;;;;;;;;;10512390;28;20036;-77
2023/07/09 17:14:04;;;;;;;7.03;3.15;;;;;;;;;;10505819;28;20032;-75
2023/07/09 17:19:09;;;;;;;6.72;3.40;;;;;;;;;;10504190;28;20563;-75
2023/07/09 17:24:19;;;;;;;7.00;2.90;;;;;;;;;;10506664;28;20058;-75
2023/07/09 17:29:25;;;;;;;7.80;3.03;;;;;;;;;;10505548;28;20140;-77
2023/07/09 17:34:27;;;;;;;5.57;3.00;;;;;;;;;;10508588;28;20636;-75
2023/07/09 17:39:30;;;;;;;5.65;3.00;;;;;;;;;;10506013;28;20051;-75
2023/07/09 17:44:34;;;;;;;12.35;3.08;;;;;;;;;;10505795;28;20127;-76
2023/07/09 17:49:37;;;;;;;8.10;3.00;;;;;;;;;;10506578;28;20460;-76
2023/07/09 17:54:40;;;;;;;9.05;3.22;;;;;;;;;;10504163;28;20411;-76
2023/07/09 17:59:45;;;;;;;8.30;2.95;;;;;;;;;;10516268;28;21705;-75
2023/07/09 18:04:47;;;;;;;5.03;2.65;;;;;;;;;;10506628;28;20365;-75
2023/07/09 18:09:50;;;;;;;6.15;2.55;;;;;;;;;;10501910;28;20040;-77
2023/07/09 18:14:55;;;;;;;6.70;2.90;;;;;;;;;;10504919;28;20056;-75
2023/07/09 18:19:58;;;;;;;6.30;3.10;;;;;;;;;;10501100;28;20048;-74
2023/07/09 18:25:01;;;;;;;8.27;3.28;;;;;;;;;;10501378;28;20052;-75
2023/07/09 18:30:06;;;;;;;9.10;3.70;;;;;;;;;;10500296;28;20040;-75
2023/07/09 18:35:16;;;;;;;11.77;3.40;;;;;;;;;;10501010;28;20043;-75
2023/07/09 18:40:20;;;;;;;7.60;3.20;;;;;;;;;;10501821;28;20108;-74
2023/07/09 18:45:25;;;;;;;6.65;3.20;;;;;;;;;;10504829;28;20071;-75
2023/07/09 18:50:28;;;;;;;8.35;3.22;;;;;;;;;;10506778;28;20036;-74
2023/07/09 18:55:31;;;;;;;7.13;3.20;;;;;;;;;;10513363;28;20649;-76
2023/07/09 19:00:35;;;;;;;8.45;3.65;;;;;;;;;;10506779;28;20047;-75
2023/07/09 19:05:37;;;;;;;9.55;3.25;;;;;;;;;;10506739;28;20056;-77
2023/07/09 19:10:40;;;;;;;9.15;4.07;;;;;;;;;;10503730;28;20035;-74
2023/07/09 19:15:48;;;;;;;6.68;3.17;;;;;;;;;;10499758;28;20044;-74
2023/07/09 19:20:51;;;;;;;9.95;3.85;;;;;;;;;;10502722;28;20622;-74
2023/07/09 19:25:54;;;;;;;8.80;3.97;;;;;;;;;;10503629;28;20121;-74
2023/07/09 19:30:59;;;;;;;10.18;3.75;;;;;;;;;;10503307;28;20038;-77
2023/07/09 19:36:02;;;;;;;13.48;5.00;;;;;;;;;;10502531;28;20113;-78
2023/07/09 19:41:05;;;;;;;10.65;4.57;;;;;;;;;;10509167;28;20422;-76
2023/07/09 19:46:16;;;;;;;13.35;5.63;;;;;;;;;;10504777;28;20044;-74
2023/07/09 19:51:19;;;;;;;9.15;4.18;;;;;;;;;;10501789;28;20051;-75
2023/07/09 19:56:22;;;;;;;8.77;4.07;;;;;;;;;;10508647;28;20123;-74
2023/07/09 20:01:26;;;;;;;9.00;4.38;;;;;;;;;;10511890;28;20036;-74
2023/07/09 20:06:29;;;;;;;14.95;5.03;;;;;;;;;;10506561;28;20083;-74
2023/07/09 20:11:32;;;;;;;10.00;4.43;;;;;;;;;;10508777;28;20032;-75
2023/07/09 20:16:37;;;;;;;13.02;5.85;;;;;;;;;;10511123;28;20060;-75
2023/07/09 20:21:41;;;;;;;11.68;5.40;;;;;;;;;;10510801;28;20901;-76
2023/07/09 20:26:43;;;;;;;13.05;5.07;;;;;;;;;;10530226;28;20041;-76
2023/07/09 20:31:49;;;;;;;12.07;5.47;;;;;;;;;;10514912;28;20040;-76
2023/07/09 20:36:52;;;;;;;12.43;5.05;;;;;;;;;;10511571;28;20119;-74
2023/07/09 20:41:55;;;;;;;9.45;4.28;;;;;;;;;;10517015;28;20040;-76
2023/07/09 20:46:58;;;;;;;;;;;;;;;;;;10510203;28;20085;-76
2023/07/09 20:52:02;;;;;;;12.87;6.83;;;;;;;;;;10510091;28;19931;-77
2023/07/09 20:57:13;;;;;;;11.68;4.80;;;;;;;;;;10505603;28;20044;-76
2023/07/09 21:02:19;;;;;;;11.32;4.28;;;;;;;;;;10505751;28;20044;-76
2023/07/09 21:07:24;;;;;;;12.25;5.70;;;;;;;;;;10504403;28;20055;-76
2023/07/09 21:12:26;;;;;;;12.23;4.40;;;;;;;;;;10503665;28;20119;-76
2023/07/09 21:17:30;;;;;;;9.23;4.40;;;;;;;;;;10506953;28;20542;-77
2023/07/09 21:22:34;;;;;;;10.60;4.50;;;;;;;;;;10488888;28;20097;-77
2023/07/09 21:27:38;;;;;;;7.88;4.43;;;;;;;;;;10512887;28;20409;-76
2023/07/09 21:32:41;;;;;;;8.93;4.75;;;;;;;;;;10519203;28;20039;-76
2023/07/09 21:37:46;;;;;;;11.40;4.55;;;;;;;;;;10507552;28;20044;-76
2023/07/09 21:42:54;;;;;;;11.43;4.70;;;;;;;;;;10503653;28;20108;-74
2023/07/09 21:47:57;;;;;;;6.95;3.72;;;;;;;;;;10504639;28;20071;-75
2023/07/09 21:53:01;;;;;;;11.13;4.35;;;;;;;;;;10508863;28;20052;-76
2023/07/09 21:58:04;;;;;;;11.85;4.10;;;;;;;;;;10502972;28;20036;-76
2023/07/09 22:03:07;;;;;;;8.30;4.32;;;;;;;;;;10504862;28;20039;-78
2023/07/09 22:08:14;;;;;;;8.98;3.92;;;;;;;;;;10506192;28;20161;-76
2023/07/09 22:13:19;;;;;;;9.13;4.20;;;;;;;;;;10517626;28;20043;-77
2023/07/09 22:18:22;;;;;;;9.98;3.92;;;;;;;;;;10502167;28;20217;-76
2023/07/09 22:23:28;;;;;;;9.23;4.13;;;;;;;;;;10514225;28;20064;-76
2023/07/09 22:28:31;;;;;;;9.10;3.80;;;;;;;;;;10507926;28;20055;-77
2023/07/09 22:33:34;;;;;;;5.97;2.97;;;;;;;;;;10504270;28;20036;-76
2023/07/09 22:38:38;;;;;;;6.55;3.60;;;;;;;;;;10502629;28;20056;-76
2023/07/09 22:43:41;;;;;;;7.35;3.50;;;;;;;;;;10506618;28;20059;-75
2023/07/09 22:48:44;;;;;;;9.57;3.58;;;;;;;;;;10502040;28;20035;-76
2023/07/09 22:53:49;;;;;;;9.95;3.88;;;;;;;;;;10503466;28;20159;-76
2023/07/09 22:58:52;;;;;;;7.88;3.42;;;;;;;;;;10503884;28;20040;-75
2023/07/09 23:03:55;;;;;;;9.48;3.67;;;;;;;;;;10508074;28;20043;-76
2023/07/09 23:08:59;;;;;;;10.73;3.45;;;;;;;;;;10506766;28;20044;-76
2023/07/09 23:14:02;;;;;;;8.68;3.50;;;;;;;;;;10512995;28;20158;-76
2023/07/09 23:19:15;;;;;;;7.93;3.50;;;;;;;;;;10510404;28;20105;-76
2023/07/09 23:24:19;;;;;;;8.18;4.13;;;;;;;;;;10505649;28;20044;-76
2023/07/09 23:29:23;;;;;;;7.88;3.20;;;;;;;;;;10509628;28;20048;-76
2023/07/09 23:34:26;;;;;;;8.20;3.00;;;;;;;;;;10513464;28;21650;-76
2023/07/09 23:39:29;;;;;;;;;;;;;;;;;;10509933;28;20228;-77
2023/07/09 23:44:33;;;;;;;7.45;2.83;;;;;;;;;;10506841;28;19936;-77
2023/07/09 23:49:36;;;;;;;6.03;3.20;;;;;;;;;;10509697;28;20091;-77
2023/07/09 23:54:39;;;;;;;;;;;;;;;;;;10515858;28;20044;-76
2023/07/09 23:59:43;;;;;;;8.23;3.40;;;;;;;;;;10512353;28;19928;-76
